Hudson, Michigan
Current Conditions -  °F | °C
As of 9:35 AM on Friday 24 Oct 2014 (Local Time) from KJYM Reporting Station
Broken Clouds Broken Clouds  
Wind Chill: 48°   Ceiling: 3900
Heat Index: 48°   Visibility: 7mi
Dew Point: 45°   Wind: 0mph
Humidity: 91%   Direction: NA
Pressure: 30.07"   Gusts: NA
Location:  41.86°N, 84.35°W
Report Text: KJYM 241335Z AUTO 00000KT 7SM BKN039 09/07 A3007 RMK AO2 T00870073
Loading
Personal Weather Stations






























Interactive Weather Map
Tropical Storm Tracking
New forecast layout! Learn more

10-Day Weather Forecast

Advertisements
Track Severe Weather on mobile